Time;durP1;ratioP1;P1;durP2;ratioP2;P2;SDS_P1;SDS_P2;PMS_P1;PMS_P2;Temp;Humidity;BMP_temperature;BMP_pressure;BME280_temperature;BME280_humidity;BME280_pressure;Samples;Min_cycle;Max_cycle;Signal;HPM_P1;HPM_P2
2022/04/30 00:01:06;;;;;;;4.40;2.10;;;7.50;99.90;;;;;;5103866;28;20085;-82
2022/04/30 00:03:32;;;;;;;3.13;1.83;;;7.40;99.90;;;;;;5089696;28;20024;-81
2022/04/30 00:05:58;;;;;;;4.13;1.92;;;7.30;99.90;;;;;;5093836;28;20481;-80
2022/04/30 00:08:24;;;;;;;2.72;1.75;;;7.30;99.90;;;;;;5107926;28;20098;-80
2022/04/30 00:10:52;;;;;;;3.55;1.80;;;7.30;99.90;;;;;;5093016;28;20028;-80
2022/04/30 00:13:17;;;;;;;3.78;2.05;;;7.30;99.90;;;;;;5109106;28;20032;-80
2022/04/30 00:15:44;;;;;;;2.67;1.65;;;7.30;99.90;;;;;;5079843;28;20130;-80
2022/04/30 00:18:10;;;;;;;5.13;1.95;;;7.20;99.90;;;;;;5078926;28;20013;-80
2022/04/30 00:20:37;;;;;;;3.70;2.05;;;7.20;99.90;;;;;;5097490;28;20028;-80
2022/04/30 00:23:19;;;;;;;3.60;2.00;;;7.10;99.90;;;;;;5077838;28;20031;-80
2022/04/30 00:25:49;;;;;;;3.95;2.05;;;7.10;99.90;;;;;;5075416;28;20444;-80
2022/04/30 00:28:15;;;;;;;3.55;2.13;;;7.10;99.90;;;;;;5075142;28;20016;-80
2022/04/30 00:30:43;;;;;;;5.45;2.42;;;7.00;99.90;;;;;;5073614;28;20457;-80
2022/04/30 00:33:10;;;;;;;3.72;2.22;;;7.00;99.90;;;;;;5075402;28;20029;-80
2022/04/30 00:35:36;;;;;;;3.50;2.10;;;6.90;99.90;;;;;;5055655;28;20133;-80
2022/04/30 00:38:02;;;;;;;3.78;1.98;;;6.90;99.90;;;;;;5054929;28;20029;-80
2022/04/30 00:40:28;;;;;;;4.43;2.67;;;6.80;99.90;;;;;;5071611;28;20020;-80
2022/04/30 00:42:53;;;;;;;4.68;2.17;;;6.90;99.90;;;;;;5072671;28;20596;-80
2022/04/30 00:45:20;;;;;;;3.70;2.30;;;6.80;99.90;;;;;;5071374;28;20035;-80
2022/04/30 00:47:46;;;;;;;3.88;2.28;;;6.80;99.90;;;;;;5071451;28;20017;-80
2022/04/30 00:50:15;;;;;;;3.88;2.00;;;6.80;99.90;;;;;;5072661;28;20090;-80
2022/04/30 00:52:43;;;;;;;4.35;2.65;;;6.80;99.90;;;;;;5072436;28;20490;-81
2022/04/30 00:55:11;;;;;;;4.57;2.67;;;6.70;99.90;;;;;;5091814;28;20016;-80
2022/04/30 00:57:41;;;;;;;3.40;2.15;;;6.60;99.90;;;;;;5096508;28;20039;-81
2022/04/30 01:00:08;;;;;;;4.25;2.50;;;6.60;99.90;;;;;;5079341;28;20043;-81
2022/04/30 01:02:33;;;;;;;4.65;2.30;;;6.60;99.90;;;;;;5060948;28;20024;-80
2022/04/30 01:05:00;;;;;;;4.05;2.60;;;6.60;99.90;;;;;;5089244;28;20478;-80
2022/04/30 01:07:27;;;;;;;5.07;2.72;;;6.50;99.90;;;;;;5079769;28;20016;-81
2022/04/30 01:09:54;;;;;;;6.07;3.20;;;6.60;99.90;;;;;;5062933;28;20066;-80
2022/04/30 01:12:21;;;;;;;5.05;2.85;;;6.40;99.90;;;;;;5057613;28;20017;-80
2022/04/30 01:14:48;;;;;;;4.97;2.80;;;6.40;99.90;;;;;;5076425;28;20090;-80
2022/04/30 01:17:14;;;;;;;4.22;2.58;;;6.40;99.90;;;;;;5057520;28;20083;-80
2022/04/30 01:19:43;;;;;;;5.20;2.58;;;6.40;99.90;;;;;;5074236;28;20499;-81
2022/04/30 01:22:10;;;;;;;5.90;2.83;;;6.40;99.90;;;;;;5058108;28;20474;-80
2022/04/30 01:24:36;;;;;;;5.10;2.60;;;6.30;99.90;;;;;;5075578;28;20016;-83
2022/04/30 01:27:05;;;;;;;5.03;2.97;;;6.30;99.90;;;;;;5058243;28;20060;-81
2022/04/30 01:29:32;;;;;;;5.47;2.63;;;6.30;99.90;;;;;;5057571;28;20017;-81
2022/04/30 01:37:28;;;;;;;6.38;3.47;;;6.30;99.90;;;;;;5083958;28;20038;-82
2022/04/30 01:39:59;;;;;;;5.53;3.20;;;6.30;99.90;;;;;;5077299;28;20024;-82
2022/04/30 01:42:29;;;;;;;7.72;3.22;;;6.30;99.90;;;;;;5076844;28;20107;-82
2022/04/30 01:44:57;;;;;;;6.30;3.50;;;6.20;99.90;;;;;;5087573;28;20670;-82
2022/04/30 01:47:24;;;;;;;6.50;3.53;;;6.20;99.90;;;;;;5076932;28;20027;-82
2022/04/30 01:49:50;;;;;;;6.25;3.63;;;6.20;99.90;;;;;;5092824;28;20036;-82
2022/04/30 01:52:16;;;;;;;5.47;3.40;;;6.20;99.90;;;;;;5086560;28;20060;-81
2022/04/30 01:54:42;;;;;;;5.65;3.67;;;6.20;99.90;;;;;;5089406;28;20189;-81
2022/04/30 01:57:08;;;;;;;6.32;3.42;;;6.20;99.90;;;;;;5076369;28;20462;-82
2022/04/30 01:59:34;;;;;;;8.63;3.58;;;6.10;99.90;;;;;;5087097;28;20119;-81
2022/04/30 02:02:02;;;;;;;6.50;3.88;;;6.10;99.90;;;;;;5076421;28;20020;-82
2022/04/30 02:04:30;;;;;;;5.68;3.40;;;6.10;99.90;;;;;;5078398;28;20020;-82
2022/04/30 02:06:59;;;;;;;6.13;3.65;;;6.10;99.90;;;;;;5059346;28;20016;-82
2022/04/30 02:09:28;;;;;;;5.40;3.95;;;6.00;99.90;;;;;;5075823;28;20020;-81
2022/04/30 02:11:59;;;;;;;6.40;4.00;;;6.00;99.90;;;;;;5076181;28;20380;-82
2022/04/30 02:14:30;;;;;;;7.80;4.00;;;6.00;99.90;;;;;;5092835;28;20452;-82
2022/04/30 02:16:58;;;;;;;6.07;4.10;;;5.90;99.90;;;;;;5091821;28;20027;-82
2022/04/30 02:19:27;;;;;;;8.05;3.75;;;5.90;99.90;;;;;;5093099;28;20036;-82
2022/04/30 02:21:56;;;;;;;6.60;3.92;;;5.90;99.90;;;;;;5076274;28;20028;-81
2022/04/30 02:24:22;;;;;;;8.40;4.03;;;5.80;99.90;;;;;;5076389;28;20024;-81
2022/04/30 02:26:47;;;;;;;6.63;3.58;;;5.90;99.90;;;;;;5092902;28;20082;-82
2022/04/30 02:29:13;;;;;;;5.30;3.58;;;5.80;99.90;;;;;;5094351;28;20047;-81
2022/04/30 02:31:39;;;;;;;8.18;3.55;;;5.80;99.90;;;;;;5092891;28;20020;-81
2022/04/30 02:34:04;;;;;;;5.40;3.80;;;5.80;99.90;;;;;;5093953;28;20100;-82
2022/04/30 02:36:30;;;;;;;5.78;3.80;;;5.70;99.90;;;;;;5092928;28;20023;-82
2022/04/30 02:38:57;;;;;;;7.18;3.95;;;5.80;99.90;;;;;;5092811;28;20547;-82
2022/04/30 02:41:23;;;;;;;5.95;3.45;;;5.70;99.90;;;;;;5092633;28;20024;-82
2022/04/30 02:43:51;;;;;;;6.60;3.75;;;5.70;99.90;;;;;;5094041;28;20024;-82
2022/04/30 02:46:20;;;;;;;6.60;4.20;;;5.70;99.90;;;;;;5093743;28;20027;-82
2022/04/30 02:48:47;;;;;;;6.60;3.90;;;5.70;99.90;;;;;;5093721;28;20027;-81
2022/04/30 02:51:15;;;;;;;6.07;3.58;;;5.70;99.90;;;;;;5092259;28;20032;-81
2022/04/30 02:53:42;;;;;;;7.85;4.05;;;5.70;99.90;;;;;;5075942;28;20036;-81
2022/04/30 02:56:10;;;;;;;7.05;3.90;;;5.60;99.90;;;;;;5092163;28;20035;-81
2022/04/30 03:01:20;;;;;;;6.80;4.05;;;5.60;99.90;;;;;;5094196;28;20039;-81
2022/04/30 03:03:49;;;;;;;6.05;3.55;;;5.60;99.90;;;;;;5093742;28;20020;-81
2022/04/30 03:06:17;;;;;;;7.88;4.25;;;5.60;99.90;;;;;;5092136;28;20106;-81
2022/04/30 03:08:47;;;;;;;8.57;4.32;;;5.60;99.90;;;;;;5093450;28;20024;-81
2022/04/30 03:11:13;;;;;;;6.43;4.10;;;5.50;99.90;;;;;;5093658;28;20020;-81
2022/04/30 03:13:39;;;;;;;7.07;3.92;;;5.50;99.90;;;;;;5093095;28;20039;-81
2022/04/30 03:21:41;;;;;;;7.10;3.90;;;5.50;99.90;;;;;;5093614;28;20400;-81
2022/04/30 03:24:07;;;;;;;6.47;4.07;;;5.40;99.90;;;;;;5092016;28;20035;-81
2022/04/30 03:26:33;;;;;;;7.15;3.92;;;5.40;99.90;;;;;;5074676;28;20016;-81
2022/04/30 03:28:58;;;;;;;6.85;3.53;;;5.40;99.90;;;;;;5091657;28;20027;-81
2022/04/30 03:31:24;;;;;;;6.85;4.32;;;5.50;99.90;;;;;;5093031;28;20611;-81
2022/04/30 03:33:50;;;;;;;7.45;4.15;;;5.40;99.90;;;;;;5091554;28;20043;-81
2022/04/30 03:36:18;;;;;;;7.75;4.40;;;5.40;99.90;;;;;;5074948;28;20051;-82
2022/04/30 03:38:44;;;;;;;7.85;4.63;;;5.40;99.90;;;;;;5091927;28;20118;-81
2022/04/30 03:41:10;;;;;;;9.93;4.88;;;5.30;99.90;;;;;;5092776;28;20024;-81
2022/04/30 03:43:35;;;;;;;9.15;5.15;;;5.30;99.90;;;;;;5092715;28;20035;-81
2022/04/30 03:46:01;;;;;;;7.90;4.50;;;5.30;99.90;;;;;;5092742;28;20078;-81
2022/04/30 03:48:28;;;;;;;9.45;4.97;;;5.30;99.90;;;;;;5092637;28;20112;-80
2022/04/30 03:50:55;;;;;;;9.05;4.70;;;5.20;99.90;;;;;;5091783;28;20458;-81
2022/04/30 03:53:21;;;;;;;6.72;4.88;;;5.20;99.90;;;;;;5091488;28;20028;-81
2022/04/30 03:55:46;;;;;;;9.25;4.97;;;5.20;99.90;;;;;;5091281;28;20013;-81
2022/04/30 03:58:12;;;;;;;8.13;4.68;;;5.20;99.90;;;;;;5074789;28;20035;-81
2022/04/30 04:00:38;;;;;;;10.60;4.65;;;5.20;99.90;;;;;;5092685;28;20072;-81
2022/04/30 04:03:03;;;;;;;7.63;5.00;;;5.20;99.90;;;;;;5091358;28;20059;-81
2022/04/30 04:05:29;;;;;;;7.55;4.40;;;5.10;99.90;;;;;;5092565;28;20022;-81
2022/04/30 04:07:57;;;;;;;6.63;4.30;;;5.10;99.90;;;;;;5091240;28;20032;-81
2022/04/30 04:10:23;;;;;;;11.23;5.15;;;5.10;99.90;;;;;;5091206;28;20027;-81
2022/04/30 04:12:50;;;;;;;8.40;4.80;;;5.10;99.90;;;;;;5092460;28;20390;-81
2022/04/30 04:18:00;;;;;;;7.22;4.47;;;5.20;99.90;;;;;;5072387;28;20040;-82
2022/04/30 04:20:25;;;;;;;7.55;5.32;;;5.10;99.90;;;;;;5072362;28;20024;-81
2022/04/30 04:22:52;;;;;;;9.48;5.07;;;5.10;99.90;;;;;;5087916;28;20060;-81
2022/04/30 04:28:03;;;;;;;7.90;3.92;;;5.10;99.90;;;;;;5072469;28;20098;-80
2022/04/30 04:30:30;;;;;;;6.82;4.40;;;5.00;99.90;;;;;;5090561;28;20020;-80
2022/04/30 04:32:57;;;;;;;7.72;4.55;;;5.00;99.90;;;;;;5075961;28;20482;-81
2022/04/30 04:35:24;;;;;;;7.00;4.75;;;5.00;99.90;;;;;;5091727;28;20024;-82
2022/04/30 04:37:50;;;;;;;7.88;5.18;;;5.00;99.90;;;;;;5091701;28;20021;-82
2022/04/30 04:40:17;;;;;;;7.75;5.60;;;5.00;99.90;;;;;;5076023;28;20036;-81
2022/04/30 04:42:43;;;;;;;8.55;5.53;;;5.00;99.90;;;;;;5076040;28;20101;-82
2022/04/30 04:45:10;;;;;;;8.77;5.00;;;4.90;99.90;;;;;;5075730;28;20017;-82
2022/04/30 04:47:39;;;;;;;8.07;5.18;;;5.00;99.90;;;;;;5091504;28;20055;-83
2022/04/30 04:50:09;;;;;;;9.65;5.95;;;4.90;99.90;;;;;;5075567;28;20028;-82
2022/04/30 04:52:35;;;;;;;10.73;5.40;;;5.00;99.90;;;;;;5075598;28;20104;-82
2022/04/30 04:55:01;;;;;;;8.57;5.78;;;5.00;99.90;;;;;;5075536;28;20028;-82
2022/04/30 04:57:27;;;;;;;8.88;5.15;;;5.00;99.90;;;;;;5091236;28;20035;-82
2022/04/30 04:59:54;;;;;;;7.72;5.47;;;5.00;99.90;;;;;;5091183;28;20028;-82
2022/04/30 05:02:20;;;;;;;9.63;5.38;;;5.00;99.90;;;;;;5075594;28;20020;-82
2022/04/30 05:04:46;;;;;;;8.30;5.43;;;5.00;99.90;;;;;;5091270;28;20432;-82
2022/04/30 05:07:11;;;;;;;8.02;5.70;;;5.10;99.90;;;;;;5075288;28;20050;-81
2022/04/30 05:09:37;;;;;;;9.52;5.20;;;5.10;99.90;;;;;;5075263;28;20051;-82
2022/04/30 05:12:04;;;;;;;11.38;5.97;;;5.20;99.90;;;;;;5075881;28;20040;-81
2022/04/30 05:14:33;;;;;;;6.43;4.32;;;5.20;99.90;;;;;;5090713;28;20084;-81
2022/04/30 05:17:03;;;;;;;7.95;5.13;;;5.30;99.90;;;;;;5090981;28;20024;-81
2022/04/30 05:19:29;;;;;;;7.30;4.75;;;5.30;99.90;;;;;;5075226;28;20079;-81
2022/04/30 05:21:54;;;;;;;7.35;4.90;;;5.40;99.90;;;;;;5090805;28;20021;-81
2022/04/30 05:24:20;;;;;;;7.50;4.90;;;5.50;99.90;;;;;;5090804;28;20442;-81
2022/04/30 05:26:49;;;;;;;7.70;4.50;;;5.60;99.90;;;;;;5073965;28;20478;-80
2022/04/30 05:29:15;;;;;;;5.95;4.05;;;5.70;99.90;;;;;;5090692;28;20020;-80
2022/04/30 05:31:41;;;;;;;7.43;4.63;;;5.80;99.90;;;;;;5090756;28;20017;-81
2022/04/30 05:34:07;;;;;;;8.68;4.72;;;5.90;99.90;;;;;;5091145;28;20105;-81
2022/04/30 05:36:33;;;;;;;7.78;5.28;;;6.00;99.90;;;;;;5091076;28;20545;-81
2022/04/30 05:39:01;;;;;;;7.50;4.20;;;6.10;99.90;;;;;;5075694;28;20371;-81
2022/04/30 05:41:28;;;;;;;8.80;4.82;;;6.20;99.90;;;;;;5090771;28;20024;-81
2022/04/30 05:43:54;;;;;;;7.03;4.68;;;6.30;99.90;;;;;;5090418;28;20048;-81
2022/04/30 05:46:19;;;;;;;7.78;4.15;;;6.40;99.90;;;;;;5090377;28;20090;-81
2022/04/30 05:48:45;;;;;;;7.88;4.65;;;6.50;99.90;;;;;;5090491;28;20532;-81
2022/04/30 05:51:11;;;;;;;7.45;4.22;;;6.60;99.90;;;;;;5090569;28;20037;-81
2022/04/30 05:53:36;;;;;;;7.18;4.40;;;6.70;99.90;;;;;;5090013;28;20095;-81
2022/04/30 05:56:02;;;;;;;6.40;4.05;;;6.80;99.90;;;;;;5074789;28;20036;-81
2022/04/30 05:58:28;;;;;;;8.38;3.92;;;6.90;99.90;;;;;;5074474;28;20048;-81
2022/04/30 06:00:53;;;;;;;6.18;4.43;;;7.00;99.90;;;;;;5090294;28;20029;-81
2022/04/30 06:03:19;;;;;;;6.35;3.83;;;7.10;99.90;;;;;;5089989;28;20115;-82
2022/04/30 06:05:45;;;;;;;7.97;3.95;;;7.30;99.90;;;;;;5090045;28;20087;-81
2022/04/30 06:08:11;;;;;;;6.88;3.80;;;7.40;99.90;;;;;;5090444;28;20063;-81
2022/04/30 06:10:37;;;;;;;5.63;3.33;;;7.50;99.90;;;;;;5074293;28;20024;-81
2022/04/30 06:13:03;;;;;;;5.40;3.72;;;7.70;99.90;;;;;;5074310;28;20043;-81
2022/04/30 06:15:29;;;;;;;4.13;3.08;;;7.70;99.90;;;;;;5090240;28;20098;-81
2022/04/30 06:17:55;;;;;;;7.63;3.90;;;7.90;99.90;;;;;;5089705;28;20024;-81
2022/04/30 06:20:20;;;;;;;6.07;3.80;;;8.00;99.90;;;;;;5089802;28;20040;-81
2022/04/30 06:22:46;;;;;;;7.47;3.42;;;8.00;99.90;;;;;;5090098;28;20028;-82
2022/04/30 06:25:12;;;;;;;6.68;3.58;;;8.10;99.90;;;;;;5090225;28;20522;-82
2022/04/30 06:27:38;;;;;;;7.03;3.42;;;8.20;99.90;;;;;;5073042;28;20017;-82
2022/04/30 06:30:06;;;;;;;6.43;3.75;;;8.30;99.90;;;;;;5088948;28;20078;-80
2022/04/30 06:32:33;;;;;;;6.20;3.40;;;8.40;99.90;;;;;;5086785;28;20043;-80
2022/04/30 06:34:59;;;;;;;7.05;3.60;;;8.40;99.90;;;;;;5085960;28;20012;-80
2022/04/30 06:37:24;;;;;;;5.18;3.22;;;8.50;99.90;;;;;;5086371;28;20481;-80
2022/04/30 06:39:51;;;;;;;5.53;3.50;;;8.50;99.90;;;;;;5085399;28;20048;-81
2022/04/30 06:42:17;;;;;;;5.65;3.47;;;8.60;99.90;;;;;;5086102;28;20032;-81
2022/04/30 06:44:43;;;;;;;4.97;2.92;;;8.60;99.90;;;;;;5085857;28;20403;-80
2022/04/30 06:47:08;;;;;;;6.57;2.72;;;8.70;99.90;;;;;;5085387;28;20025;-80
2022/04/30 06:49:34;;;;;;;3.80;2.58;;;8.70;99.90;;;;;;5085554;28;20112;-80
2022/04/30 06:52:00;;;;;;;5.95;2.60;;;8.70;99.90;;;;;;5085956;28;20032;-81
2022/04/30 06:57:14;;;;;;;6.45;3.20;;;8.80;99.90;;;;;;5070207;28;20050;-83
2022/04/30 06:59:41;;;;;;;5.22;2.90;;;9.00;99.90;;;;;;5085529;28;20112;-80
2022/04/30 07:02:18;;;;;;;5.20;3.20;;;9.00;99.90;;;;;;5086855;28;20470;-80
2022/04/30 07:04:49;;;;;;;5.63;3.20;;;9.10;99.90;;;;;;5088965;28;20013;-82
2022/04/30 07:07:15;;;;;;;5.05;2.95;;;9.20;99.90;;;;;;5087417;28;20021;-80
2022/04/30 07:09:41;;;;;;;4.80;2.97;;;9.30;99.90;;;;;;5072899;28;20028;-81
2022/04/30 07:12:09;;;;;;;5.47;2.72;;;9.40;99.90;;;;;;5089045;28;20021;-82
2022/04/30 07:14:36;;;;;;;3.20;2.42;;;9.50;99.90;;;;;;5081091;28;20540;-82
2022/04/30 07:17:06;;;;;;;4.93;2.80;;;9.60;99.90;;;;;;5093675;28;20024;-82
2022/04/30 07:19:32;;;;;;;6.45;2.47;;;9.70;99.90;;;;;;5092081;28;20035;-83
2022/04/30 07:21:58;;;;;;;4.50;2.50;;;9.80;99.90;;;;;;5092572;28;20547;-82
2022/04/30 07:24:24;;;;;;;4.43;2.33;;;9.90;99.90;;;;;;5090116;28;20028;-81
2022/04/30 07:26:50;;;;;;;3.30;2.38;;;10.00;99.90;;;;;;5089817;28;20079;-82
2022/04/30 07:29:15;;;;;;;3.53;2.55;;;10.10;99.90;;;;;;5089644;28;20097;-82
2022/04/30 07:31:41;;;;;;;5.97;2.60;;;10.30;99.90;;;;;;5091266;28;20047;-82
2022/04/30 07:34:09;;;;;;;5.30;3.10;;;10.30;99.90;;;;;;5089766;28;20032;-81
2022/04/30 07:36:35;;;;;;;5.07;2.90;;;10.40;99.90;;;;;;5091667;28;20020;-83
2022/04/30 07:39:01;;;;;;;4.68;3.00;;;10.50;99.90;;;;;;5092975;28;20077;-82
2022/04/30 07:41:26;;;;;;;5.93;3.33;;;10.60;99.90;;;;;;5091688;28;20024;-82
2022/04/30 07:43:52;;;;;;;5.68;3.30;;;10.70;99.90;;;;;;5092878;28;20053;-82
2022/04/30 07:46:18;;;;;;;6.88;3.67;;;10.80;99.90;;;;;;5091661;28;20069;-82
2022/04/30 07:48:44;;;;;;;4.53;3.10;;;10.80;99.90;;;;;;5091632;28;20362;-81
2022/04/30 07:51:18;;;;;;;6.93;3.65;;;10.80;99.90;;;;;;5091597;28;20127;-82
2022/04/30 07:53:45;;;;;;;5.65;3.88;;;10.90;99.90;;;;;;5091573;28;20032;-83
2022/04/30 07:56:11;;;;;;;5.10;3.40;;;11.00;99.90;;;;;;5091500;28;20408;-82
2022/04/30 07:58:38;;;;;;;6.82;3.50;;;11.20;99.90;;;;;;5091346;28;20424;-83
2022/04/30 08:01:04;;;;;;;7.07;4.40;;;11.30;99.90;;;;;;5091339;28;20047;-83
2022/04/30 08:03:29;;;;;;;8.02;4.93;;;11.30;99.90;;;;;;5092855;28;20469;-83
2022/04/30 08:05:55;;;;;;;5.50;3.90;;;11.40;99.90;;;;;;5094982;28;20103;-83
2022/04/30 08:08:21;;;;;;;7.63;4.25;;;11.50;99.90;;;;;;5095515;28;20020;-84
2022/04/30 08:10:46;;;;;;;6.63;4.20;;;11.50;99.90;;;;;;5096119;28;20020;-85
2022/04/30 08:13:12;;;;;;;8.10;3.97;;;11.50;99.90;;;;;;5095923;28;20560;-87
2022/04/30 08:15:43;;;;;;;4.57;3.63;;;11.70;99.90;;;;;;5096230;28;20040;-86
2022/04/30 08:18:10;;;;;;;7.68;4.18;;;11.80;99.90;;;;;;5079689;28;20028;-88
2022/04/30 08:20:37;;;;;;;7.50;3.65;;;11.90;99.90;;;;;;5096565;28;20032;-87
2022/04/30 08:23:04;;;;;;;8.32;3.03;;;12.00;99.90;;;;;;5080419;28;20112;-87
2022/04/30 08:25:30;;;;;;;6.22;3.42;;;12.00;99.90;;;;;;5096497;28;20180;-85
2022/04/30 08:27:55;;;;;;;5.82;3.28;;;12.10;99.90;;;;;;5097885;28;20474;-87
2022/04/30 08:30:21;;;;;;;6.03;2.90;;;12.20;99.90;;;;;;5096463;28;20030;-85
2022/04/30 08:32:50;;;;;;;5.68;3.30;;;12.30;99.90;;;;;;5096330;28;20050;-85
2022/04/30 08:35:16;;;;;;;6.93;3.55;;;12.20;99.90;;;;;;5095657;28;20495;-85
2022/04/30 08:37:41;;;;;;;5.28;3.60;;;12.20;99.90;;;;;;5095525;28;20008;-84
2022/04/30 08:40:07;;;;;;;4.72;3.42;;;12.20;99.90;;;;;;5095319;28;20031;-87
2022/04/30 08:42:33;;;;;;;6.88;3.65;;;12.20;99.90;;;;;;5091817;28;20713;-82
2022/04/30 08:45:03;;;;;;;5.97;4.07;;;12.20;99.90;;;;;;5091925;28;20024;-82
2022/04/30 08:47:42;;;;;;;6.93;3.67;;;12.20;99.90;;;;;;5091152;28;20131;-82
2022/04/30 08:50:13;;;;;;;6.53;3.55;;;12.30;99.90;;;;;;5074304;28;20043;-82
2022/04/30 08:52:39;;;;;;;4.88;3.55;;;12.20;99.90;;;;;;5091514;28;20668;-82
2022/04/30 08:55:06;;;;;;;5.03;3.50;;;12.20;99.90;;;;;;5091387;28;20056;-83
2022/04/30 08:57:32;;;;;;;6.32;4.25;;;12.40;99.90;;;;;;5091194;28;20070;-82
2022/04/30 09:00:01;;;;;;;7.00;4.10;;;12.50;99.90;;;;;;5082519;28;20031;-82
2022/04/30 09:02:30;;;;;;;5.97;3.67;;;12.60;99.90;;;;;;5064614;28;20028;-83
2022/04/30 09:04:56;;;;;;;7.35;3.60;;;12.70;99.90;;;;;;5081385;28;20020;-81
2022/04/30 09:07:24;;;;;;;5.40;3.35;;;13.00;99.90;;;;;;5080307;28;20028;-82
2022/04/30 09:10:03;;;;;;;6.50;3.88;;;13.30;99.90;;;;;;5070572;28;20017;-82
2022/04/30 09:12:31;;;;;;;6.47;3.88;;;13.60;99.90;;;;;;5073643;28;20089;-83
2022/04/30 09:14:58;;;;;;;7.38;3.60;;;13.60;99.90;;;;;;5074619;28;20084;-83
2022/04/30 09:17:26;;;;;;;6.75;3.28;;;13.60;99.90;;;;;;5076085;28;20078;-83
2022/04/30 09:19:53;;;;;;;5.93;3.30;;;13.60;99.90;;;;;;5068797;28;20745;-83
2022/04/30 09:22:35;;;;;;;3.70;2.95;;;13.60;99.90;;;;;;5069440;28;20029;-82
2022/04/30 09:25:10;;;;;;;5.30;3.30;;;13.60;99.90;;;;;;5083713;28;20379;-83
2022/04/30 09:27:44;;;;;;;6.43;3.20;;;13.60;99.90;;;;;;5070316;28;20012;-82
2022/04/30 09:30:20;;;;;;;5.05;3.40;;;13.90;99.90;;;;;;5070290;28;20034;-82
2022/04/30 09:32:56;;;;;;;4.70;3.05;;;14.00;99.90;;;;;;5087515;28;20446;-82
2022/04/30 09:38:06;;;;;;;4.35;3.20;;;14.00;99.90;;;;;;5071571;28;20185;-82
2022/04/30 09:40:32;;;;;;;5.03;3.00;;;13.90;99.90;;;;;;5074590;28;20581;-84
2022/04/30 09:43:00;;;;;;;4.30;2.70;;;14.10;99.90;;;;;;5066244;28;20104;-83
2022/04/30 09:45:30;;;;;;;5.70;3.50;;;14.20;99.90;;;;;;5086347;28;20459;-83
2022/04/30 09:47:58;;;;;;;5.18;3.10;;;14.40;99.90;;;;;;5069974;28;20634;-83
2022/04/30 09:55:56;;;;;;;6.57;3.00;;;15.60;99.90;;;;;;5072633;28;20035;-83
2022/04/30 09:58:35;;;;;;;3.72;2.50;;;15.80;99.90;;;;;;5074778;28;20060;-83
2022/04/30 10:01:02;;;;;;;4.90;2.30;;;15.70;99.90;;;;;;5073182;28;20071;-83
2022/04/30 10:03:31;;;;;;;6.22;2.25;;;16.00;99.90;;;;;;5071396;28;20538;-83
2022/04/30 10:06:03;;;;;;;3.70;2.38;;;16.50;99.90;;;;;;5072085;28;20090;-83
2022/04/30 10:08:40;;;;;;;4.75;2.42;;;16.40;99.90;;;;;;5071356;28;20040;-83
2022/04/30 10:11:35;;;;;;;4.97;2.72;;;16.00;99.90;;;;;;5077045;28;20052;-83
2022/04/30 10:14:22;;;;;;;5.85;2.80;;;15.50;99.90;;;;;;5080650;28;20059;-83
2022/04/30 10:19:33;;;;;;;5.88;3.10;;;14.70;99.90;;;;;;5096879;28;20109;-83
2022/04/30 10:22:10;;;;;;;5.10;3.33;;;14.30;99.90;;;;;;5097071;28;20478;-82
2022/04/30 10:24:41;;;;;;;5.32;3.05;;;13.90;99.90;;;;;;5106067;28;20024;-83
2022/04/30 10:27:07;;;;;;;7.60;4.00;;;13.70;99.90;;;;;;5116001;28;20042;-82
2022/04/30 10:29:32;;;;;;;7.30;3.88;;;13.50;99.90;;;;;;5114830;28;20040;-82
2022/04/30 10:31:58;;;;;;;6.60;4.15;;;13.30;99.90;;;;;;5115979;28;20012;-83
2022/04/30 10:34:31;;;;;;;5.53;3.47;;;13.20;99.90;;;;;;5109308;28;20066;-86
2022/04/30 10:37:00;;;;;;;6.18;3.70;;;13.20;99.90;;;;;;5110329;28;20030;-82
2022/04/30 10:39:26;;;;;;;5.55;4.10;;;13.10;99.90;;;;;;5108545;28;20032;-82
2022/04/30 10:41:53;;;;;;;7.72;3.63;;;13.10;99.90;;;;;;5106280;28;20024;-82
2022/04/30 10:44:32;;;;;;;6.22;4.13;;;13.10;99.90;;;;;;5106628;28;20396;-82
2022/04/30 10:47:14;;;;;;;6.80;3.80;;;13.10;99.90;;;;;;5092607;28;20061;-82
2022/04/30 10:49:40;;;;;;;7.82;3.90;;;13.00;99.90;;;;;;5105348;28;20032;-82
2022/04/30 10:52:07;;;;;;;8.38;4.38;;;13.00;99.90;;;;;;5094066;28;20024;-81
2022/04/30 10:54:34;;;;;;;5.50;3.78;;;12.90;99.90;;;;;;5073000;28;20103;-81
2022/04/30 10:57:02;;;;;;;4.45;3.05;;;12.90;99.90;;;;;;5096801;28;20039;-83
2022/04/30 10:59:28;;;;;;;4.75;3.05;;;12.90;99.90;;;;;;5083814;28;20057;-81
2022/04/30 11:01:54;;;;;;;5.90;3.75;;;13.00;99.90;;;;;;5099823;28;20047;-82
2022/04/30 11:04:20;;;;;;;4.95;2.97;;;13.00;99.90;;;;;;5080228;28;20028;-82
2022/04/30 11:06:52;;;;;;;6.15;3.17;;;13.10;99.90;;;;;;5078126;28;20119;-82
2022/04/30 11:09:18;;;;;;;3.45;2.40;;;13.10;99.90;;;;;;5075986;28;20031;-81
2022/04/30 11:11:49;;;;;;;4.60;2.80;;;13.10;99.90;;;;;;5074723;28;20020;-82
2022/04/30 11:14:16;;;;;;;5.32;2.58;;;13.10;99.90;;;;;;5074706;28;20051;-82
2022/04/30 11:16:45;;;;;;;4.15;2.58;;;13.10;99.90;;;;;;5071994;28;20522;-81
2022/04/30 11:19:19;;;;;;;4.25;2.83;;;13.10;99.90;;;;;;5090424;28;20024;-83
2022/04/30 11:21:50;;;;;;;2.83;2.35;;;13.20;99.90;;;;;;5083805;28;20039;-82
2022/04/30 11:24:28;;;;;;;3.95;2.70;;;13.20;99.90;;;;;;5062314;28;20035;-82
2022/04/30 11:27:05;;;;;;;4.65;2.50;;;13.30;99.90;;;;;;5077856;28;20363;-82
2022/04/30 11:29:32;;;;;;;4.65;3.00;;;13.40;99.90;;;;;;5061930;28;20475;-81
2022/04/30 11:31:59;;;;;;;4.43;2.75;;;13.40;99.90;;;;;;5060270;28;20024;-82
2022/04/30 11:34:25;;;;;;;4.45;2.70;;;13.40;99.90;;;;;;5071439;28;20028;-82
2022/04/30 11:36:54;;;;;;;5.00;2.88;;;13.40;99.90;;;;;;5088774;28;20109;-82
2022/04/30 11:39:21;;;;;;;4.03;2.58;;;13.40;99.90;;;;;;5071580;28;20027;-83
2022/04/30 11:41:49;;;;;;;4.60;3.08;;;13.50;99.90;;;;;;5071760;28;20028;-82
2022/04/30 11:44:17;;;;;;;4.22;2.70;;;13.50;99.90;;;;;;5070776;28;20138;-82
2022/04/30 11:46:44;;;;;;;4.85;2.60;;;13.70;99.90;;;;;;5071160;28;20413;-82
2022/04/30 11:49:15;;;;;;;4.15;2.80;;;13.80;99.90;;;;;;5088081;28;20058;-82
2022/04/30 11:51:42;;;;;;;4.65;3.25;;;13.90;99.90;;;;;;5088567;28;20077;-85
2022/04/30 11:54:11;;;;;;;3.83;2.58;;;14.00;99.90;;;;;;5071243;28;20062;-82
2022/04/30 11:56:38;;;;;;;4.53;2.80;;;14.10;99.90;;;;;;5068621;28;20024;-83
2022/04/30 11:59:05;;;;;;;4.57;2.50;;;14.20;99.90;;;;;;5074399;28;20024;-82
2022/04/30 12:01:33;;;;;;;3.05;2.40;;;14.20;99.90;;;;;;5079512;28;20024;-82
2022/04/30 12:04:09;;;;;;;5.93;2.80;;;14.30;99.90;;;;;;5074737;28;20032;-83
2022/04/30 12:06:39;;;;;;;3.72;2.10;;;14.50;99.90;;;;;;5062486;28;20515;-82
2022/04/30 12:09:19;;;;;;;4.43;2.53;;;14.60;99.90;;;;;;5063981;28;20090;-82
2022/04/30 12:11:50;;;;;;;2.63;2.13;;;14.80;99.90;;;;;;5073952;28;20038;-83
2022/04/30 12:14:20;;;;;;;5.07;2.60;;;14.80;99.90;;;;;;5067037;28;20500;-82
2022/04/30 12:16:48;;;;;;;4.43;2.42;;;14.90;99.90;;;;;;5066144;28;20027;-82
2022/04/30 12:25:12;;;;;;;3.97;2.35;;;15.00;99.90;;;;;;5068387;28;20046;-82
2022/04/30 12:27:40;;;;;;;4.35;2.63;;;15.00;99.90;;;;;;5063515;28;20112;-83
2022/04/30 12:30:14;;;;;;;5.43;2.40;;;14.90;99.90;;;;;;5067327;28;20851;-82
2022/04/30 12:33:01;;;;;;;4.30;2.92;;;14.80;99.40;;;;;;5085895;28;20467;-83
2022/04/30 12:35:40;;;;;;;4.97;2.97;;;14.70;98.50;;;;;;5069903;28;20044;-82
2022/04/30 12:38:14;;;;;;;3.88;2.30;;;14.50;98.40;;;;;;5066820;28;20060;-82
2022/04/30 12:40:42;;;;;;;5.20;2.47;;;14.40;98.70;;;;;;5066224;28;20038;-82
2022/04/30 12:43:08;;;;;;;5.65;3.05;;;14.40;98.90;;;;;;5067889;28;20024;-82
2022/04/30 12:45:34;;;;;;;5.13;3.00;;;14.40;99.10;;;;;;5066447;28;20031;-83
2022/04/30 12:48:04;;;;;;;5.05;3.10;;;14.20;98.70;;;;;;5074643;28;20084;-83
2022/04/30 12:50:32;;;;;;;4.45;2.80;;;14.10;99.00;;;;;;5067189;28;20564;-82
2022/04/30 12:52:58;;;;;;;4.43;2.58;;;14.00;99.10;;;;;;5069502;28;20028;-82
2022/04/30 12:55:24;;;;;;;3.95;2.65;;;13.90;99.10;;;;;;5062668;28;20119;-82
2022/04/30 12:57:50;;;;;;;4.55;2.63;;;13.80;99.20;;;;;;5070432;28;20016;-82
2022/04/30 13:00:17;;;;;;;3.85;2.00;;;13.80;99.30;;;;;;5074520;28;20060;-82
2022/04/30 13:02:44;;;;;;;4.15;2.50;;;13.80;99.30;;;;;;5090481;28;20031;-82
2022/04/30 13:05:12;;;;;;;4.13;2.65;;;13.90;99.40;;;;;;5067893;28;20017;-81
2022/04/30 13:07:41;;;;;;;3.22;2.30;;;13.80;99.00;;;;;;5061763;28;20040;-82
2022/04/30 13:15:38;;;;;;;4.20;2.30;;;13.80;98.90;;;;;;5079921;28;20067;-83
2022/04/30 13:18:06;;;;;;;2.78;1.98;;;13.70;98.30;;;;;;5060353;28;20081;-82
2022/04/30 13:20:32;;;;;;;2.92;2.00;;;13.70;98.30;;;;;;5069293;28;20032;-82
2022/04/30 13:22:58;;;;;;;4.18;2.10;;;13.70;98.20;;;;;;5068621;28;20028;-82
2022/04/30 13:25:24;;;;;;;3.40;2.03;;;13.70;98.10;;;;;;5053669;28;20077;-82
2022/04/30 13:27:50;;;;;;;4.22;2.20;;;13.80;97.90;;;;;;5055778;28;20028;-83
2022/04/30 13:30:19;;;;;;;4.22;2.40;;;13.80;97.80;;;;;;5076789;28;20029;-83
2022/04/30 13:32:46;;;;;;;3.90;2.03;;;13.80;97.70;;;;;;5067664;28;20032;-83
2022/04/30 13:35:12;;;;;;;3.13;2.00;;;13.90;97.80;;;;;;5067745;28;20753;-83
2022/04/30 13:37:41;;;;;;;3.85;2.28;;;14.00;98.00;;;;;;5078850;28;20021;-84
2022/04/30 13:40:08;;;;;;;2.92;2.03;;;14.10;97.70;;;;;;5060858;28;20111;-82